sensor_id;sensor_type;location;lat;lon;timestamp;pressure;altitude;pressure_sealevel;temperature;humidity
66857;BME280;53766;50.280;19.160;2024-01-06T00:01:25;97419.41;;;17.16;50.59
66857;BME280;53766;50.280;19.160;2024-01-06T00:03:53;97424.72;;;17.16;50.48
66857;BME280;53766;50.280;19.160;2024-01-06T00:06:21;97424.72;;;17.16;50.43
66857;BME280;53766;50.280;19.160;2024-01-06T00:08:48;97430.03;;;17.16;50.53
66857;BME280;53766;50.280;19.160;2024-01-06T00:11:22;97424.72;;;17.16;50.67
66857;BME280;53766;50.280;19.160;2024-01-06T00:13:50;97419.41;;;17.16;50.61
66857;BME280;53766;50.280;19.160;2024-01-06T00:16:17;97415.09;;;17.15;50.60
66857;BME280;53766;50.280;19.160;2024-01-06T00:18:47;97423.09;;;17.15;50.66
66857;BME280;53766;50.280;19.160;2024-01-06T00:21:15;97415.09;;;17.15;50.51
66857;BME280;53766;50.280;19.160;2024-01-06T00:23:42;97412.44;;;17.15;50.39
66857;BME280;53766;50.280;19.160;2024-01-06T00:26:10;97406.31;;;17.15;50.38
66857;BME280;53766;50.280;19.160;2024-01-06T00:28:41;97411.63;;;17.15;50.64
66857;BME280;53766;50.280;19.160;2024-01-06T00:31:09;97403.66;;;17.15;50.59
66857;BME280;53766;50.280;19.160;2024-01-06T00:33:36;97405.50;;;17.14;50.61
66857;BME280;53766;50.280;19.160;2024-01-06T00:36:04;97402.84;;;17.14;50.54
66857;BME280;53766;50.280;19.160;2024-01-06T00:38:34;97410.81;;;17.14;50.58
66857;BME280;53766;50.280;19.160;2024-01-06T00:41:02;97409.78;;;17.15;50.70
66857;BME280;53766;50.280;19.160;2024-01-06T00:43:30;97400.19;;;17.14;50.52
66857;BME280;53766;50.280;19.160;2024-01-06T00:45:57;97407.13;;;17.15;50.47
66857;BME280;53766;50.280;19.160;2024-01-06T00:48:25;97406.31;;;17.15;50.58
66857;BME280;53766;50.280;19.160;2024-01-06T00:50:53;97411.63;;;17.15;50.65
66857;BME280;53766;50.280;19.160;2024-01-06T00:53:21;97417.75;;;17.15;50.72
66857;BME280;53766;50.280;19.160;2024-01-06T00:55:49;97426.78;;;17.14;50.52
66857;BME280;53766;50.280;19.160;2024-01-06T00:58:17;97423.09;;;17.15;50.69
66857;BME280;53766;50.280;19.160;2024-01-06T01:00:44;97418.81;;;17.14;50.41
66857;BME280;53766;50.280;19.160;2024-01-06T01:03:12;97423.09;;;17.15;50.53
66857;BME280;53766;50.280;19.160;2024-01-06T01:05:39;97421.47;;;17.14;50.33
66857;BME280;53766;50.280;19.160;2024-01-06T01:08:07;97418.81;;;17.14;50.54
66857;BME280;53766;50.280;19.160;2024-01-06T01:10:35;97426.78;;;17.14;50.53
66857;BME280;53766;50.280;19.160;2024-01-06T01:13:02;97421.47;;;17.14;50.55
66857;BME280;53766;50.280;19.160;2024-01-06T01:15:30;97425.16;;;17.13;50.57
66857;BME280;53766;50.280;19.160;2024-01-06T01:17:58;97425.16;;;17.13;50.62
66857;BME280;53766;50.280;19.160;2024-01-06T01:20:25;97428.84;;;17.12;50.69
66857;BME280;53766;50.280;19.160;2024-01-06T01:22:53;97441.09;;;17.13;50.45
66857;BME280;53766;50.280;19.160;2024-01-06T01:25:20;97441.09;;;17.13;50.30
66857;BME280;53766;50.280;19.160;2024-01-06T01:27:48;97433.38;;;17.12;50.39
66857;BME280;53766;50.280;19.160;2024-01-06T01:30:15;97429.66;;;17.13;50.62
66857;BME280;53766;50.280;19.160;2024-01-06T01:32:44;97435.78;;;17.13;50.54
66857;BME280;53766;50.280;19.160;2024-01-06T01:35:11;97426.19;;;17.12;50.50
66857;BME280;53766;50.280;19.160;2024-01-06T01:37:39;97433.38;;;17.12;50.54
66857;BME280;53766;50.280;19.160;2024-01-06T01:40:07;97439.50;;;17.12;50.50
66857;BME280;53766;50.280;19.160;2024-01-06T01:42:35;97427.81;;;17.13;50.61
66857;BME280;53766;50.280;19.160;2024-01-06T01:45:04;97425.16;;;17.13;50.45
66857;BME280;53766;50.280;19.160;2024-01-06T01:47:32;97426.19;;;17.12;50.24
66857;BME280;53766;50.280;19.160;2024-01-06T01:50:00;97418.22;;;17.12;50.55
66857;BME280;53766;50.280;19.160;2024-01-06T01:52:30;97428.84;;;17.12;50.55
66857;BME280;53766;50.280;19.160;2024-01-06T01:54:57;97424.53;;;17.11;50.62
66857;BME280;53766;50.280;19.160;2024-01-06T01:57:25;97420.88;;;17.12;50.42
66857;BME280;53766;50.280;19.160;2024-01-06T01:59:53;97416.56;;;17.11;50.26
66857;BME280;53766;50.280;19.160;2024-01-06T02:02:21;97421.88;;;17.11;50.46
66857;BME280;53766;50.280;19.160;2024-01-06T02:04:49;97421.88;;;17.11;50.51
66857;BME280;53766;50.280;19.160;2024-01-06T02:07:17;97412.88;;;17.12;50.48
66857;BME280;53766;50.280;19.160;2024-01-06T02:09:45;97425.59;;;17.10;50.44
66857;BME280;53766;50.280;19.160;2024-01-06T02:12:12;97421.88;;;17.11;50.45
66857;BME280;53766;50.280;19.160;2024-01-06T02:14:40;97424.53;;;17.11;50.50
66857;BME280;53766;50.280;19.160;2024-01-06T02:17:09;97427.22;;;17.11;50.47
66857;BME280;53766;50.280;19.160;2024-01-06T02:19:36;97425.59;;;17.10;50.39
66857;BME280;53766;50.280;19.160;2024-01-06T02:22:04;97429.28;;;17.09;50.42
66857;BME280;53766;50.280;19.160;2024-01-06T02:24:32;97432.78;;;17.10;50.40
66857;BME280;53766;50.280;19.160;2024-01-06T02:26:59;97419.47;;;17.10;50.40
66857;BME280;53766;50.280;19.160;2024-01-06T02:29:27;97423.75;;;17.11;50.48
66857;BME280;53766;50.280;19.160;2024-01-06T02:31:54;97415.97;;;17.09;50.40
66857;BME280;53766;50.280;19.160;2024-01-06T02:34:22;97418.44;;;17.11;50.49
66857;BME280;53766;50.280;19.160;2024-01-06T02:36:50;97418.63;;;17.09;50.35
66857;BME280;53766;50.280;19.160;2024-01-06T02:39:18;97413.31;;;17.09;50.17
66857;BME280;53766;50.280;19.160;2024-01-06T02:41:46;97408.00;;;17.09;50.42
66857;BME280;53766;50.280;19.160;2024-01-06T02:44:13;97401.88;;;17.09;50.33
66857;BME280;53766;50.280;19.160;2024-01-06T02:46:41;97397.34;;;17.09;50.43
66857;BME280;53766;50.280;19.160;2024-01-06T02:49:08;97384.06;;;17.09;50.47
66857;BME280;53766;50.280;19.160;2024-01-06T02:51:36;97383.25;;;17.09;50.24
66857;BME280;53766;50.280;19.160;2024-01-06T02:54:04;97387.75;;;17.08;50.38
66857;BME280;53766;50.280;19.160;2024-01-06T02:56:31;97380.59;;;17.09;50.36
66857;BME280;53766;50.280;19.160;2024-01-06T02:58:59;97376.06;;;17.09;50.41
66857;BME280;53766;50.280;19.160;2024-01-06T03:01:27;97384.06;;;17.09;50.46
66857;BME280;53766;50.280;19.160;2024-01-06T03:03:54;97392.03;;;17.09;50.40
66857;BME280;53766;50.280;19.160;2024-01-06T03:06:22;97390.41;;;17.08;50.37
66857;BME280;53766;50.280;19.160;2024-01-06T03:08:49;97386.72;;;17.09;50.53
66857;BME280;53766;50.280;19.160;2024-01-06T03:11:17;97384.28;;;17.08;50.13
66857;BME280;53766;50.280;19.160;2024-01-06T03:13:44;97384.28;;;17.08;50.49
66857;BME280;53766;50.280;19.160;2024-01-06T03:16:13;97389.63;;;17.08;50.41
66857;BME280;53766;50.280;19.160;2024-01-06T03:18:40;97391.22;;;17.09;50.37
66857;BME280;53766;50.280;19.160;2024-01-06T03:21:20;97390.41;;;17.08;50.42
66857;BME280;53766;50.280;19.160;2024-01-06T03:23:48;97391.22;;;17.09;50.41
66857;BME280;53766;50.280;19.160;2024-01-06T03:26:17;97382.66;;;17.06;50.17
66857;BME280;53766;50.280;19.160;2024-01-06T03:28:44;97388.78;;;17.07;50.38
66857;BME280;53766;50.280;19.160;2024-01-06T03:31:12;97373.66;;;17.08;50.33
66857;BME280;53766;50.280;19.160;2024-01-06T03:33:39;97379.78;;;17.08;50.35
66857;BME280;53766;50.280;19.160;2024-01-06T03:36:07;97373.66;;;17.08;50.24
66857;BME280;53766;50.280;19.160;2024-01-06T03:38:35;97383.44;;;17.07;50.33
66857;BME280;53766;50.280;19.160;2024-01-06T03:41:03;97386.94;;;17.08;50.43
66857;BME280;53766;50.280;19.160;2024-01-06T03:43:30;97381.63;;;17.08;50.37
66857;BME280;53766;50.280;19.160;2024-01-06T03:45:58;97372.81;;;17.07;50.44
66857;BME280;53766;50.280;19.160;2024-01-06T03:48:27;97372.81;;;17.07;50.33
66857;BME280;53766;50.280;19.160;2024-01-06T03:50:56;97378.13;;;17.07;50.18
66857;BME280;53766;50.280;19.160;2024-01-06T03:53:24;97378.13;;;17.07;50.30
66857;BME280;53766;50.280;19.160;2024-01-06T03:55:53;97368.53;;;17.06;50.52
66857;BME280;53766;50.280;19.160;2024-01-06T03:58:21;97379.19;;;17.06;50.22
66857;BME280;53766;50.280;19.160;2024-01-06T04:00:48;97373.88;;;17.06;50.32
66857;BME280;53766;50.280;19.160;2024-01-06T04:03:16;97373.88;;;17.06;50.45
66857;BME280;53766;50.280;19.160;2024-01-06T04:05:44;97376.53;;;17.06;50.39
66857;BME280;53766;50.280;19.160;2024-01-06T04:08:11;97378.38;;;17.05;50.25
66857;BME280;53766;50.280;19.160;2024-01-06T04:10:39;97381.84;;;17.06;50.33
66857;BME280;53766;50.280;19.160;2024-01-06T04:13:08;97387.16;;;17.06;50.29
66857;BME280;53766;50.280;19.160;2024-01-06T04:15:36;97391.69;;;17.05;50.30
66857;BME280;53766;50.280;19.160;2024-01-06T04:18:04;97398.59;;;17.06;50.15
66857;BME280;53766;50.280;19.160;2024-01-06T04:20:32;97397.81;;;17.06;50.26
66857;BME280;53766;50.280;19.160;2024-01-06T04:23:00;97397.00;;;17.05;50.20
66857;BME280;53766;50.280;19.160;2024-01-06T04:25:27;97397.81;;;17.06;50.17
66857;BME280;53766;50.280;19.160;2024-01-06T04:27:55;97393.53;;;17.05;50.30
66857;BME280;53766;50.280;19.160;2024-01-06T04:30:22;97397.81;;;17.06;50.15
66857;BME280;53766;50.280;19.160;2024-01-06T04:32:51;97398.59;;;17.06;50.20
66857;BME280;53766;50.280;19.160;2024-01-06T04:35:20;97401.28;;;17.06;50.33
66857;BME280;53766;50.280;19.160;2024-01-06T04:37:47;97404.75;;;17.07;50.13
66857;BME280;53766;50.280;19.160;2024-01-06T04:40:15;97406.84;;;17.05;50.17
66857;BME280;53766;50.280;19.160;2024-01-06T04:42:42;97399.88;;;17.04;50.23
66857;BME280;53766;50.280;19.160;2024-01-06T04:45:10;97401.50;;;17.05;50.11
66857;BME280;53766;50.280;19.160;2024-01-06T04:47:37;97406.00;;;17.04;50.21
66857;BME280;53766;50.280;19.160;2024-01-06T04:50:05;97413.97;;;17.04;50.05
66857;BME280;53766;50.280;19.160;2024-01-06T04:52:33;97408.66;;;17.04;50.25
66857;BME280;53766;50.280;19.160;2024-01-06T04:55:00;97413.75;;;17.06;50.26
66857;BME280;53766;50.280;19.160;2024-01-06T04:57:29;97407.63;;;17.05;50.40
66857;BME280;53766;50.280;19.160;2024-01-06T04:59:57;97413.75;;;17.06;50.13
66857;BME280;53766;50.280;19.160;2024-01-06T05:02:25;97412.16;;;17.05;50.12
66857;BME280;53766;50.280;19.160;2024-01-06T05:04:52;97408.44;;;17.06;50.29
66857;BME280;53766;50.280;19.160;2024-01-06T05:07:20;97401.50;;;17.05;50.16
66857;BME280;53766;50.280;19.160;2024-01-06T05:09:47;97403.13;;;17.06;50.24
66857;BME280;53766;50.280;19.160;2024-01-06T05:12:15;97400.47;;;17.06;50.28
66857;BME280;53766;50.280;19.160;2024-01-06T05:14:42;97402.31;;;17.05;50.16
66857;BME280;53766;50.280;19.160;2024-01-06T05:17:10;97401.50;;;17.05;50.07
66857;BME280;53766;50.280;19.160;2024-01-06T05:19:37;97401.50;;;17.05;50.13
66857;BME280;53766;50.280;19.160;2024-01-06T05:22:05;97416.63;;;17.04;50.09
66857;BME280;53766;50.280;19.160;2024-01-06T05:24:33;97414.81;;;17.05;50.33
66857;BME280;53766;50.280;19.160;2024-01-06T05:27:00;97410.50;;;17.04;50.10
66857;BME280;53766;50.280;19.160;2024-01-06T05:29:28;97412.16;;;17.05;50.27
66857;BME280;53766;50.280;19.160;2024-01-06T05:31:55;97416.63;;;17.04;50.20
66857;BME280;53766;50.280;19.160;2024-01-06T05:34:23;97421.16;;;17.04;50.20
66857;BME280;53766;50.280;19.160;2024-01-06T05:36:50;97415.84;;;17.04;50.19
66857;BME280;53766;50.280;19.160;2024-01-06T05:39:19;97419.28;;;17.04;50.10
66857;BME280;53766;50.280;19.160;2024-01-06T05:41:46;97422.78;;;17.05;50.08
66857;BME280;53766;50.280;19.160;2024-01-06T05:44:14;97412.16;;;17.05;50.09
66857;BME280;53766;50.280;19.160;2024-01-06T05:46:41;97421.97;;;17.04;50.17
66857;BME280;53766;50.280;19.160;2024-01-06T05:49:09;97421.16;;;17.04;50.19
66857;BME280;53766;50.280;19.160;2024-01-06T05:51:44;97417.47;;;17.05;50.14
66857;BME280;53766;50.280;19.160;2024-01-06T05:54:11;97418.50;;;17.04;50.08
66857;BME280;53766;50.280;19.160;2024-01-06T05:56:39;97415.84;;;17.04;50.11
66857;BME280;53766;50.280;19.160;2024-01-06T05:59:07;97408.91;;;17.03;50.08
66857;BME280;53766;50.280;19.160;2024-01-06T06:01:35;97412.38;;;17.03;50.10
66857;BME280;53766;50.280;19.160;2024-01-06T06:04:03;97421.16;;;17.04;50.10
66857;BME280;53766;50.280;19.160;2024-01-06T06:06:30;97417.69;;;17.03;50.01
66857;BME280;53766;50.280;19.160;2024-01-06T06:08:58;97414.22;;;17.03;50.02
66857;BME280;53766;50.280;19.160;2024-01-06T06:11:26;97420.34;;;17.03;50.14
66857;BME280;53766;50.280;19.160;2024-01-06T06:13:53;97435.50;;;17.03;50.02
66857;BME280;53766;50.280;19.160;2024-01-06T06:16:21;97430.19;;;17.03;49.94
66857;BME280;53766;50.280;19.160;2024-01-06T06:18:48;97421.34;;;17.02;50.13
66857;BME280;53766;50.280;19.160;2024-01-06T06:21:16;97439.97;;;17.02;49.97
66857;BME280;53766;50.280;19.160;2024-01-06T06:23:44;97439.19;;;17.02;50.09
66857;BME280;53766;50.280;19.160;2024-01-06T06:26:11;97439.19;;;17.02;49.92
66857;BME280;53766;50.280;19.160;2024-01-06T06:28:39;97428.53;;;17.02;49.97
66857;BME280;53766;50.280;19.160;2024-01-06T06:31:07;97433.84;;;17.02;49.97
66857;BME280;53766;50.280;19.160;2024-01-06T06:33:34;97431.19;;;17.02;50.10
66857;BME280;53766;50.280;19.160;2024-01-06T06:36:02;97441.84;;;17.02;50.17
66857;BME280;53766;50.280;19.160;2024-01-06T06:38:31;97448.19;;;17.01;50.06
66857;BME280;53766;50.280;19.160;2024-01-06T06:40:58;97446.34;;;17.01;50.03
66857;BME280;53766;50.280;19.160;2024-01-06T06:43:26;97441.25;;;17.00;50.09
66857;BME280;53766;50.280;19.160;2024-01-06T06:45:53;97439.19;;;17.02;50.03
66857;BME280;53766;50.280;19.160;2024-01-06T06:48:23;97443.69;;;17.01;50.23
66857;BME280;53766;50.280;19.160;2024-01-06T06:50:50;97439.19;;;17.02;49.92
66857;BME280;53766;50.280;19.160;2024-01-06T06:53:18;97437.56;;;17.01;49.93
66857;BME280;53766;50.280;19.160;2024-01-06T06:55:45;97439.19;;;17.02;49.99
66857;BME280;53766;50.280;19.160;2024-01-06T06:58:13;97442.03;;;17.00;49.87
66857;BME280;53766;50.280;19.160;2024-01-06T07:00:40;97442.88;;;17.01;49.92
66857;BME280;53766;50.280;19.160;2024-01-06T07:03:10;97442.88;;;17.01;50.01
66857;BME280;53766;50.280;19.160;2024-01-06T07:05:37;97453.53;;;17.01;49.87
66857;BME280;53766;50.280;19.160;2024-01-06T07:08:06;97448.19;;;17.01;49.96
66857;BME280;53766;50.280;19.160;2024-01-06T07:10:34;97449.22;;;17.00;49.87
66857;BME280;53766;50.280;19.160;2024-01-06T07:13:01;97453.53;;;17.01;50.07
66857;BME280;53766;50.280;19.160;2024-01-06T07:15:29;97458.59;;;17.02;49.85
66857;BME280;53766;50.280;19.160;2024-01-06T07:17:56;97452.47;;;17.02;50.03
66857;BME280;53766;50.280;19.160;2024-01-06T07:20:24;97457.78;;;17.02;49.84
66857;BME280;53766;50.280;19.160;2024-01-06T07:22:52;97457.78;;;17.02;50.07
66857;BME280;53766;50.280;19.160;2024-01-06T07:25:19;97456.19;;;17.01;49.86
66857;BME280;53766;50.280;19.160;2024-01-06T07:27:47;97461.91;;;16.98;50.08
66857;BME280;53766;50.280;19.160;2024-01-06T07:30:14;97453.13;;;16.97;50.03
66857;BME280;53766;50.280;19.160;2024-01-06T07:32:42;97462.97;;;16.97;49.72
66857;BME280;53766;50.280;19.160;2024-01-06T07:35:10;97464.56;;;16.98;49.83
66857;BME280;53766;50.280;19.160;2024-01-06T07:37:37;97463.56;;;16.99;49.76
66857;BME280;53766;50.280;19.160;2024-01-06T07:40:05;97466.22;;;16.99;50.00
66857;BME280;53766;50.280;19.160;2024-01-06T07:42:32;97466.22;;;16.99;50.03
66857;BME280;53766;50.280;19.160;2024-01-06T07:45:00;97467.84;;;17.00;50.14
66857;BME280;53766;50.280;19.160;2024-01-06T07:47:27;97473.16;;;17.00;50.14
66857;BME280;53766;50.280;19.160;2024-01-06T07:49:55;97477.66;;;16.99;50.14
66857;BME280;53766;50.280;19.160;2024-01-06T07:52:24;97479.53;;;16.99;50.17
66857;BME280;53766;50.280;19.160;2024-01-06T07:54:52;97471.53;;;16.99;50.38
66857;BME280;53766;50.280;19.160;2024-01-06T07:57:19;97473.16;;;17.00;50.40
66857;BME280;53766;50.280;19.160;2024-01-06T07:59:47;97467.25;;;16.98;50.35
66857;BME280;53766;50.280;19.160;2024-01-06T08:02:14;97482.19;;;16.99;50.44
66857;BME280;53766;50.280;19.160;2024-01-06T08:04:42;97470.72;;;16.98;50.41
66857;BME280;53766;50.280;19.160;2024-01-06T08:07:10;97479.53;;;16.99;50.09
66857;BME280;53766;50.280;19.160;2024-01-06T08:09:37;97482.19;;;16.99;50.44
66857;BME280;53766;50.280;19.160;2024-01-06T08:12:08;97485.84;;;16.98;50.40
66857;BME280;53766;50.280;19.160;2024-01-06T08:14:36;97494.66;;;16.98;50.39
66857;BME280;53766;50.280;19.160;2024-01-06T08:17:03;97501.00;;;16.97;50.29
66857;BME280;53766;50.280;19.160;2024-01-06T08:19:31;97501.00;;;16.97;50.59
66857;BME280;53766;50.280;19.160;2024-01-06T08:22:00;97501.00;;;16.97;50.54
66857;BME280;53766;50.280;19.160;2024-01-06T08:24:28;97505.53;;;16.97;50.32
66857;BME280;53766;50.280;19.160;2024-01-06T08:26:55;97512.47;;;16.98;50.70
66857;BME280;53766;50.280;19.160;2024-01-06T08:29:23;97499.16;;;16.98;50.54
66857;BME280;53766;50.280;19.160;2024-01-06T08:31:50;97509.78;;;16.98;50.37
66857;BME280;53766;50.280;19.160;2024-01-06T08:34:20;97507.13;;;16.98;50.55
66857;BME280;53766;50.280;19.160;2024-01-06T08:36:48;97510.59;;;16.98;50.66
66857;BME280;53766;50.280;19.160;2024-01-06T08:39:16;97509.78;;;16.98;50.30
66857;BME280;53766;50.280;19.160;2024-01-06T08:41:43;97516.97;;;16.97;50.37
66857;BME280;53766;50.280;19.160;2024-01-06T08:44:11;97517.56;;;16.99;50.55
66857;BME280;53766;50.280;19.160;2024-01-06T08:46:38;97515.72;;;17.00;50.38
66857;BME280;53766;50.280;19.160;2024-01-06T08:49:07;97520.22;;;16.99;50.40
66857;BME280;53766;50.280;19.160;2024-01-06T08:51:34;97514.91;;;16.99;50.31
66857;BME280;53766;50.280;19.160;2024-01-06T08:54:03;97513.66;;;17.02;50.46
66857;BME280;53766;50.280;19.160;2024-01-06T08:56:33;97520.63;;;17.03;50.48
66857;BME280;53766;50.280;19.160;2024-01-06T08:59:01;97525.94;;;17.03;50.53
66857;BME280;53766;50.280;19.160;2024-01-06T09:01:29;97532.88;;;17.04;50.42
66857;BME280;53766;50.280;19.160;2024-01-06T09:03:57;97528.59;;;17.03;50.66
66857;BME280;53766;50.280;19.160;2024-01-06T09:06:25;97526.53;;;17.05;50.65
66857;BME280;53766;50.280;19.160;2024-01-06T09:08:52;97525.50;;;17.06;50.86
66857;BME280;53766;50.280;19.160;2024-01-06T09:11:20;97523.88;;;17.05;50.52
66857;BME280;53766;50.280;19.160;2024-01-06T09:13:48;97526.53;;;17.05;50.66
66857;BME280;53766;50.280;19.160;2024-01-06T09:16:15;97530.81;;;17.06;50.51
66857;BME280;53766;50.280;19.160;2024-01-06T09:18:43;97527.09;;;17.07;50.63
66857;BME280;53766;50.280;19.160;2024-01-06T09:21:10;97526.31;;;17.06;50.52
66857;BME280;53766;50.280;19.160;2024-01-06T09:23:38;97529.78;;;17.07;50.43
66857;BME280;53766;50.280;19.160;2024-01-06T09:26:05;97527.94;;;17.08;50.58
66857;BME280;53766;50.280;19.160;2024-01-06T09:28:34;97527.09;;;17.07;50.49
66857;BME280;53766;50.280;19.160;2024-01-06T09:31:01;97527.09;;;17.07;50.45
66857;BME280;53766;50.280;19.160;2024-01-06T09:33:29;97527.09;;;17.07;50.45
66857;BME280;53766;50.280;19.160;2024-01-06T09:35:56;97533.47;;;17.06;50.32
66857;BME280;53766;50.280;19.160;2024-01-06T09:38:25;97535.09;;;17.07;50.48
66857;BME280;53766;50.280;19.160;2024-01-06T09:40:53;97538.59;;;17.08;50.38
66857;BME280;53766;50.280;19.160;2024-01-06T09:43:21;97543.91;;;17.08;50.41
66857;BME280;53766;50.280;19.160;2024-01-06T09:46:02;97542.06;;;17.08;50.38
66857;BME280;53766;50.280;19.160;2024-01-06T09:48:35;97533.25;;;17.08;50.31
66857;BME280;53766;50.280;19.160;2024-01-06T09:51:09;97530.59;;;17.08;50.51
66857;BME280;53766;50.280;19.160;2024-01-06T09:53:59;97532.22;;;17.09;50.47
66857;BME280;53766;50.280;19.160;2024-01-06T09:56:28;97533.25;;;17.08;50.53
66857;BME280;53766;50.280;19.160;2024-01-06T09:58:56;97534.06;;;17.08;50.56
66857;BME280;53766;50.280;19.160;2024-01-06T10:01:24;97535.69;;;17.09;50.51
66857;BME280;53766;50.280;19.160;2024-01-06T10:03:52;97538.34;;;17.09;50.37
66857;BME280;53766;50.280;19.160;2024-01-06T10:06:20;97535.69;;;17.09;50.54
66857;BME280;53766;50.280;19.160;2024-01-06T10:08:50;97533.03;;;17.09;50.36
66857;BME280;53766;50.280;19.160;2024-01-06T10:11:27;97541.00;;;17.09;50.28
66857;BME280;53766;50.280;19.160;2024-01-06T10:13:55;97541.84;;;17.10;50.46
66857;BME280;53766;50.280;19.160;2024-01-06T10:16:22;97539.41;;;17.08;50.37
66857;BME280;53766;50.280;19.160;2024-01-06T10:18:50;97536.53;;;17.10;50.39
66857;BME280;53766;50.280;19.160;2024-01-06T10:21:25;97541.00;;;17.09;50.35
66857;BME280;53766;50.280;19.160;2024-01-06T10:23:54;97534.06;;;17.08;50.29
66857;BME280;53766;50.280;19.160;2024-01-06T10:26:22;97535.69;;;17.09;50.27
66857;BME280;53766;50.280;19.160;2024-01-06T10:28:50;97524.44;;;17.07;50.66
66857;BME280;53766;50.280;19.160;2024-01-06T10:31:18;97533.25;;;17.08;50.19
66857;BME280;53766;50.280;19.160;2024-01-06T10:33:47;97527.09;;;17.07;50.27
66857;BME280;53766;50.280;19.160;2024-01-06T10:36:16;97528.75;;;17.08;50.33
66857;BME280;53766;50.280;19.160;2024-01-06T10:38:44;97528.75;;;17.08;50.31
66857;BME280;53766;50.280;19.160;2024-01-06T10:41:12;97529.56;;;17.09;50.07
66857;BME280;53766;50.280;19.160;2024-01-06T10:43:42;97530.38;;;17.09;50.29
66857;BME280;53766;50.280;19.160;2024-01-06T10:46:11;97525.88;;;17.10;50.32
66857;BME280;53766;50.280;19.160;2024-01-06T10:48:40;97519.72;;;17.09;50.16
66857;BME280;53766;50.280;19.160;2024-01-06T10:51:12;97522.38;;;17.09;50.17
66857;BME280;53766;50.280;19.160;2024-01-06T10:53:42;97525.88;;;17.10;50.27
66857;BME280;53766;50.280;19.160;2024-01-06T10:56:10;97527.50;;;17.11;50.23
66857;BME280;53766;50.280;19.160;2024-01-06T10:58:45;97524.63;;;17.12;50.24
66857;BME280;53766;50.280;19.160;2024-01-06T11:01:15;97522.97;;;17.11;50.25
66857;BME280;53766;50.280;19.160;2024-01-06T11:03:49;97517.66;;;17.11;50.34
66857;BME280;53766;50.280;19.160;2024-01-06T11:06:18;97521.16;;;17.12;50.16
66857;BME280;53766;50.280;19.160;2024-01-06T11:09:13;97515.84;;;17.12;50.34
66857;BME280;53766;50.280;19.160;2024-01-06T11:11:42;97514.00;;;17.12;50.31
66857;BME280;53766;50.280;19.160;2024-01-06T11:16:48;97517.66;;;17.11;50.35
66857;BME280;53766;50.280;19.160;2024-01-06T11:22:26;97515.59;;;17.13;50.31
66857;BME280;53766;50.280;19.160;2024-01-06T11:25:09;97515.59;;;17.13;50.29
66857;BME280;53766;50.280;19.160;2024-01-06T11:27:42;97515.59;;;17.13;50.45
66857;BME280;53766;50.280;19.160;2024-01-06T11:32:47;97506.59;;;17.14;50.40
66857;BME280;53766;50.280;19.160;2024-01-06T11:35:15;97513.53;;;17.15;50.67
66857;BME280;53766;50.280;19.160;2024-01-06T11:43:00;97509.88;;;17.16;50.90
66857;BME280;53766;50.280;19.160;2024-01-06T11:45:29;97508.00;;;17.17;51.04
66857;BME280;53766;50.280;19.160;2024-01-06T11:48:00;97507.81;;;17.18;51.16
66857;BME280;53766;50.280;19.160;2024-01-06T11:50:31;97506.16;;;17.17;51.15
66857;BME280;53766;50.280;19.160;2024-01-06T11:53:00;97510.47;;;17.18;51.09
66857;BME280;53766;50.280;19.160;2024-01-06T11:55:28;97509.41;;;17.19;51.17
66857;BME280;53766;50.280;19.160;2024-01-06T11:57:55;97508.59;;;17.19;51.37
66857;BME280;53766;50.280;19.160;2024-01-06T12:00:25;97510.22;;;17.20;51.79
66857;BME280;53766;50.280;19.160;2024-01-06T12:02:56;97505.75;;;17.20;51.68
66857;BME280;53766;50.280;19.160;2024-01-06T12:05:25;97499.56;;;17.20;51.60
66857;BME280;53766;50.280;19.160;2024-01-06T12:10:23;97500.41;;;17.20;51.58
66857;BME280;53766;50.280;19.160;2024-01-06T12:13:02;97502.84;;;17.22;51.48
66857;BME280;53766;50.280;19.160;2024-01-06T12:15:32;97498.34;;;17.22;51.67
66857;BME280;53766;50.280;19.160;2024-01-06T12:18:03;97502.03;;;17.21;51.89
66857;BME280;53766;50.280;19.160;2024-01-06T12:20:31;97502.03;;;17.21;51.58
66857;BME280;53766;50.280;19.160;2024-01-06T12:22:59;97502.03;;;17.21;51.79
66857;BME280;53766;50.280;19.160;2024-01-06T12:25:28;97503.06;;;17.20;51.84
66857;BME280;53766;50.280;19.160;2024-01-06T12:27:56;97505.75;;;17.20;51.68
66857;BME280;53766;50.280;19.160;2024-01-06T12:30:24;97503.88;;;17.21;51.68
66857;BME280;53766;50.280;19.160;2024-01-06T12:32:53;97513.47;;;17.22;51.53
66857;BME280;53766;50.280;19.160;2024-01-06T12:35:21;97522.31;;;17.22;51.55
66857;BME280;53766;50.280;19.160;2024-01-06T12:37:51;97520.66;;;17.21;51.39
66857;BME280;53766;50.280;19.160;2024-01-06T12:40:19;97519.03;;;17.20;51.45
66857;BME280;53766;50.280;19.160;2024-01-06T12:42:47;97520.88;;;17.20;51.39
66857;BME280;53766;50.280;19.160;2024-01-06T12:45:15;97527.03;;;17.20;51.43
66857;BME280;53766;50.280;19.160;2024-01-06T12:47:45;97532.34;;;17.20;51.47
66857;BME280;53766;50.280;19.160;2024-01-06T12:50:13;97529.91;;;17.19;51.47
66857;BME280;53766;50.280;19.160;2024-01-06T12:52:42;97532.34;;;17.20;51.50
66857;BME280;53766;50.280;19.160;2024-01-06T12:55:10;97528.03;;;17.19;51.42
66857;BME280;53766;50.280;19.160;2024-01-06T12:57:38;97536.03;;;17.19;51.52
66857;BME280;53766;50.280;19.160;2024-01-06T13:00:06;97533.38;;;17.19;51.41
66857;BME280;53766;50.280;19.160;2024-01-06T13:02:35;97533.38;;;17.19;51.56
66857;BME280;53766;50.280;19.160;2024-01-06T13:05:04;97536.81;;;17.20;51.41
66857;BME280;53766;50.280;19.160;2024-01-06T13:07:31;97536.81;;;17.20;51.39
66857;BME280;53766;50.280;19.160;2024-01-06T13:09:59;97539.72;;;17.18;51.53
66857;BME280;53766;50.280;19.160;2024-01-06T13:12:27;97534.41;;;17.18;51.55